Time;durP1;ratioP1;P1;durP2;ratioP2;P2;SDS_P1;SDS_P2;PMS_P1;PMS_P2;Temp;Humidity;BMP_temperature;BMP_pressure;BME280_temperature;BME280_humidity;BME280_pressure;Samples;Min_cycle;Max_cycle;Signal;HPM_P1;HPM_P2
2022/09/28 00:01:08;;;;;;;3.00;2.23;;;7.70;97.00;;;7.37;85.54;96346.72;5125745;27;20456;-77
2022/09/28 00:03:36;;;;;;;4.63;3.13;;;7.70;96.10;;;7.55;85.27;96364.59;5106173;27;20575;-75
2022/09/28 00:06:06;;;;;;;3.10;2.17;;;7.70;96.80;;;7.53;84.85;96358.63;5106301;27;20447;-80
2022/09/28 00:08:36;;;;;;;3.67;2.23;;;7.70;96.50;;;7.50;85.30;96351.03;5099551;27;20535;-75
2022/09/28 00:11:06;;;;;;;2.97;2.70;;;7.70;96.20;;;7.18;85.07;96273.53;5119153;27;20496;-73
2022/09/28 00:13:34;;;;;;;3.50;2.60;;;7.80;96.40;;;7.63;85.20;96334.63;5126911;27;20908;-77
2022/09/28 00:16:07;;;;;;;3.30;2.47;;;7.80;96.40;;;7.41;85.94;96330.97;5103196;27;20457;-74
2022/09/28 00:18:35;;;;;;;4.03;2.60;;;7.80;96.30;;;7.39;85.05;96309.69;5111366;28;20456;-74
2022/09/28 00:21:07;;;;;;;4.03;2.40;;;7.80;96.50;;;7.56;84.64;96323.22;5111210;27;20466;-74
2022/09/28 00:24:11;;;;;;;2.50;2.30;;;7.90;95.20;;;7.55;84.93;96321.59;5111454;28;20455;-77
2022/09/28 00:26:25;;;;;;;2.73;2.53;;;7.90;95.10;;;7.63;84.87;96318.50;5101455;27;20455;-74
2022/09/28 00:28:53;;;;;;;2.40;2.17;;;7.80;95.40;;;7.24;83.93;96229.63;5098959;28;20583;-78
2022/09/28 00:31:21;;;;;;;2.23;2.03;;;7.90;95.30;;;7.65;84.69;96311.03;5121194;27;21021;-76
2022/09/28 00:33:50;;;;;;;3.27;2.97;;;7.90;95.30;;;7.57;84.83;96313.28;5098792;27;20460;-76
2022/09/28 00:36:18;;;;;;;2.70;2.50;;;7.80;95.70;;;7.69;84.79;96315.94;5116443;27;20935;-74
2022/09/28 00:38:47;;;;;;;2.83;2.60;;;7.80;96.00;;;7.82;84.33;96315.66;5130252;27;20528;-75
2022/09/28 00:41:14;;;;;;;3.07;2.40;;;7.90;95.90;;;7.75;84.64;96304.22;5111918;27;20450;-74
2022/09/28 00:43:42;;;;;;;2.27;2.03;;;7.90;96.00;;;7.78;84.54;96288.44;5107634;27;20887;-75
2022/09/28 00:46:17;;;;;;;2.20;2.10;;;8.00;95.10;;;7.90;83.96;96284.88;5113017;27;20456;-78
2022/09/28 00:48:52;;;;;;;5.07;2.20;;;8.00;95.10;;;7.70;83.97;96272.69;5104696;27;20465;-75
2022/09/28 00:51:21;;;;;;;2.67;2.07;;;7.90;94.90;;;7.73;84.52;96277.56;5112858;27;20954;-75
2022/09/28 00:53:50;;;;;;;2.73;2.10;;;7.90;95.00;;;7.42;84.45;96246.63;5099714;27;20503;-76
2022/09/28 00:56:21;;;;;;;2.53;2.33;;;7.90;94.60;;;7.76;84.07;96278.97;5093536;27;21028;-74
2022/09/28 00:58:52;;;;;;;2.13;1.90;;;7.90;95.00;;;7.77;84.25;96269.84;5117174;27;20491;-76
2022/09/28 01:01:19;;;;;;;2.80;2.10;;;7.90;95.30;;;7.75;84.32;96271.97;5121240;27;20464;-77
2022/09/28 01:03:48;;;;;;;1.83;1.40;;;7.90;95.10;;;7.59;84.60;96271.66;5102563;28;20456;-75
2022/09/28 01:06:20;;;;;;;2.43;1.90;;;7.90;94.70;;;7.75;84.29;96262.03;5102123;28;20493;-73
2022/09/28 01:08:51;;;;;;;2.73;2.37;;;7.90;95.10;;;7.65;84.40;96235.75;5104006;27;20469;-75
2022/09/28 01:11:20;;;;;;;2.20;1.70;;;7.90;95.10;;;7.78;84.35;96236.53;5096142;28;20458;-75
2022/09/28 01:13:52;;;;;;;2.37;2.07;;;7.90;95.30;;;7.83;85.07;96258.16;5105688;27;20475;-80
2022/09/28 01:16:31;;;;;;;3.10;1.67;;;8.00;96.30;;;7.97;84.43;96244.41;5117698;27;20487;-75
2022/09/28 01:19:07;;;;;;;2.10;1.20;;;8.00;95.50;;;7.84;84.52;96227.50;5117961;28;21813;-76
2022/09/28 01:21:47;;;;;;;1.77;1.57;;;8.00;94.90;;;7.91;84.08;96217.41;5121120;28;20829;-80
2022/09/28 01:24:35;;;;;;;1.90;1.60;;;8.10;95.70;;;7.97;84.24;96221.00;5099354;27;20835;-74
2022/09/28 01:27:13;;;;;;;2.97;1.50;;;8.10;95.10;;;7.78;84.91;96204.25;5100062;27;21019;-74
2022/09/28 01:29:54;;;;;;;4.10;2.03;;;8.10;95.50;;;7.84;85.15;96211.38;5126764;27;20589;-77
2022/09/28 01:32:34;;;;;;;1.67;1.57;;;8.00;96.20;;;7.55;86.21;96194.44;5119233;27;20463;-76
2022/09/28 01:35:08;;;;;;;2.37;1.97;;;7.90;96.20;;;7.70;85.94;96183.97;5130196;27;20462;-75
2022/09/28 01:37:45;;;;;;;1.30;1.20;;;7.90;97.10;;;7.65;85.56;96184.69;5118233;27;20454;-75
2022/09/28 01:40:14;;;;;;;1.93;1.60;;;7.90;96.90;;;7.64;86.25;96183.06;5126296;27;20460;-75
2022/09/28 01:42:47;;;;;;;2.03;1.63;;;7.90;97.00;;;7.63;86.47;96167.19;5106452;27;20451;-79
2022/09/28 01:45:22;;;;;;;1.30;1.20;;;7.90;98.00;;;7.63;86.41;96141.09;5121992;27;20515;-76
2022/09/28 01:47:51;;;;;;;2.20;1.17;;;7.80;98.10;;;7.44;86.59;96161.19;5124724;27;20457;-79
2022/09/28 01:50:23;;;;;;;1.03;1.00;;;7.80;97.10;;;7.67;86.21;96157.56;5104678;27;20590;-72
2022/09/28 01:52:55;;;;;;;3.83;1.20;;;7.90;98.10;;;7.62;85.76;96133.31;5127711;27;20507;-76
2022/09/28 01:55:30;;;;;;;1.50;1.30;;;7.90;97.50;;;7.54;86.40;96136.38;5113002;27;20488;-75
2022/09/28 01:58:05;;;;;;;4.67;1.40;;;7.90;97.20;;;7.69;86.03;96139.31;5120260;27;20463;-76
2022/09/28 02:00:34;;;;;;;1.50;1.30;;;7.90;97.10;;;7.59;86.33;96133.78;5110787;27;20985;-75
2022/09/28 02:03:11;;;;;;;1.93;1.00;;;7.80;97.00;;;7.72;86.59;96138.03;5121356;27;20458;-76
2022/09/28 02:05:42;;;;;;;3.23;1.20;;;7.90;98.50;;;7.63;86.92;96124.19;5101826;28;20954;-77
2022/09/28 02:08:18;;;;;;;1.53;1.43;;;7.80;97.90;;;7.53;86.29;96097.97;5121197;27;20536;-77
2022/09/28 02:10:50;;;;;;;1.30;1.00;;;7.90;98.50;;;7.70;86.93;96121.34;5121767;27;20588;-76
2022/09/28 02:13:24;;;;;;;3.93;1.23;;;7.80;99.20;;;7.59;87.11;96117.66;5121928;27;20537;-76
2022/09/28 02:15:57;;;;;;;6.97;1.60;;;7.80;99.10;;;7.46;88.00;96116.09;5116578;27;20455;-80
2022/09/28 02:18:26;;;;;;;1.30;1.20;;;7.80;99.90;;;7.71;87.05;96114.91;5123473;27;21305;-76
2022/09/28 02:21:01;;;;;;;2.17;1.13;;;7.80;99.90;;;7.51;87.90;96110.81;5113180;27;20553;-76
2022/09/28 02:23:30;;;;;;;2.77;1.33;;;7.80;99.90;;;7.60;88.19;96109.34;5107558;27;20964;-76
2022/09/28 02:26:04;;;;;;;1.07;0.90;;;7.80;99.90;;;7.73;88.05;96100.13;5103590;27;20994;-74
2022/09/28 02:28:33;;;;;;;3.93;1.20;;;7.80;99.90;;;7.76;87.69;96097.00;5118237;27;20570;-76
2022/09/28 02:31:01;;;;;;;3.40;1.20;;;7.90;99.90;;;7.76;88.19;96083.53;5095529;27;20511;-76
2022/09/28 02:33:34;;;;;;;2.27;1.27;;;7.90;99.90;;;7.78;88.18;96088.66;5118517;27;20447;-78
2022/09/28 02:36:02;;;;;;;1.07;0.97;;;7.90;99.90;;;7.46;89.31;96070.41;5113096;27;20466;-77
2022/09/28 02:38:30;;;;;;;1.90;1.10;;;7.80;99.90;;;7.59;88.73;96085.41;5124927;27;20461;-78
2022/09/28 02:41:05;;;;;;;1.90;1.00;;;7.80;99.90;;;7.27;89.14;96035.72;5104116;27;20494;-74
2022/09/28 02:43:50;;;;;;;2.13;1.10;;;7.80;99.90;;;7.15;89.35;95989.31;5127400;27;20543;-72
2022/09/28 02:46:30;;;;;;;1.37;0.87;;;7.80;99.90;;;7.62;89.25;96074.97;5123188;27;20483;-74
2022/09/28 02:49:21;;;;;;;1.93;0.80;;;7.80;99.90;;;7.68;89.56;96077.75;5132052;27;20477;-74
2022/09/28 02:52:13;;;;;;;2.57;1.60;;;7.90;99.90;;;7.22;89.67;96016.84;5130479;27;20460;-75
2022/09/28 02:55:03;;;;;;;2.50;0.93;;;7.80;99.90;;;7.58;89.47;96062.25;5106407;27;20454;-76
2022/09/28 02:57:47;;;;;;;1.30;1.10;;;7.80;99.90;;;7.44;90.51;96072.53;5106180;27;20473;-74
2022/09/28 03:00:19;;;;;;;2.43;0.93;;;7.80;99.90;;;7.49;90.79;96057.31;5121497;27;20537;-75
2022/09/28 03:02:59;;;;;;;1.00;0.90;;;7.70;99.90;;;7.56;90.62;96065.22;5120269;27;20494;-73
2022/09/28 03:05:35;;;;;;;1.50;0.90;;;7.80;99.90;;;7.55;91.36;96042.09;5100002;27;20445;-78
2022/09/28 03:08:07;;;;;;;3.40;1.10;;;7.80;99.90;;;7.43;91.36;96044.88;5109800;27;20445;-74
2022/09/28 03:10:41;;;;;;;1.00;1.00;;;7.70;99.90;;;7.41;91.13;96040.78;5119382;27;20439;-81
2022/09/28 03:13:11;;;;;;;2.47;1.50;;;7.70;99.90;;;7.56;91.44;96040.19;5121452;27;20547;-74
2022/09/28 03:15:40;;;;;;;1.03;0.93;;;7.70;99.90;;;7.61;91.26;96034.94;5119932;27;20675;-74
2022/09/28 03:18:08;;;;;;;2.27;1.20;;;7.80;99.90;;;7.40;91.55;96041.84;5120935;27;20947;-75
2022/09/28 03:20:36;;;;;;;1.10;0.93;;;7.70;99.90;;;7.26;91.96;96028.72;5116710;27;20451;-81
2022/09/28 03:23:04;;;;;;;1.87;1.30;;;7.60;99.90;;;7.45;92.12;96025.78;5123855;27;20544;-77
2022/09/28 03:25:31;;;;;;;4.33;1.77;;;7.70;99.90;;;7.47;92.40;96023.66;5103355;27;20481;-78
2022/09/28 03:27:58;;;;;;;1.53;1.27;;;7.70;99.90;;;7.29;92.05;96017.47;5105765;27;20499;-75
2022/09/28 03:30:25;;;;;;;1.30;1.10;;;7.70;99.90;;;7.27;91.91;95987.38;5124409;27;20479;-75
2022/09/28 03:32:59;;;;;;;3.03;1.40;;;7.70;99.90;;;7.41;91.90;96006.66;5120152;27;20881;-77
2022/09/28 03:35:27;;;;;;;1.90;1.40;;;7.70;99.90;;;7.60;91.82;96015.28;5124722;27;20452;-75
2022/09/28 03:37:55;;;;;;;1.40;1.30;;;7.80;99.90;;;7.71;91.45;96004.69;5104432;27;20533;-75
2022/09/28 03:40:23;;;;;;;2.77;1.10;;;7.80;99.90;;;7.75;91.54;96003.13;5106188;28;20459;-75
2022/09/28 03:42:50;;;;;;;1.30;1.20;;;7.80;99.90;;;7.60;91.97;95991.09;5121766;27;20493;-76
2022/09/28 03:45:17;;;;;;;2.70;1.37;;;7.80;99.90;;;7.73;91.42;95994.50;5118197;27;20479;-77
2022/09/28 03:47:48;;;;;;;2.20;1.43;;;7.90;99.90;;;7.51;91.60;95976.47;5119734;27;20541;-75
2022/09/28 03:50:16;;;;;;;2.53;1.33;;;7.90;99.90;;;7.63;91.96;95997.88;5109274;27;20556;-75
2022/09/28 03:52:43;;;;;;;1.53;1.43;;;7.80;99.90;;;7.29;93.06;95947.63;5095771;27;20455;-77
2022/09/28 03:55:12;;;;;;;1.40;1.30;;;7.80;99.90;;;7.41;93.19;95965.56;5107643;27;20534;-77
2022/09/28 03:57:39;;;;;;;2.50;1.60;;;7.80;99.90;;;7.73;92.59;95978.38;5114822;27;20485;-79
2022/09/28 04:00:07;;;;;;;3.03;1.67;;;7.90;99.90;;;7.76;93.52;95972.50;5102935;27;20449;-76
2022/09/28 04:02:35;;;;;;;1.93;1.73;;;7.80;99.90;;;7.59;93.29;95954.53;5116441;27;20453;-76
2022/09/28 04:05:02;;;;;;;2.00;1.80;;;7.90;99.90;;;7.64;93.88;95969.91;5096947;28;21058;-76
2022/09/28 04:07:31;;;;;;;2.67;1.73;;;7.80;99.90;;;7.41;94.11;95952.13;5103601;27;20464;-80
2022/09/28 04:09:58;;;;;;;1.73;1.63;;;7.80;99.90;;;7.60;94.44;95949.97;5115436;27;20484;-74
2022/09/28 04:12:25;;;;;;;2.20;1.83;;;7.80;99.90;;;7.55;93.81;95939.97;5111961;27;20456;-74
2022/09/28 04:14:52;;;;;;;2.23;2.03;;;7.80;99.90;;;7.26;93.78;95880.97;5097727;27;20455;-77
2022/09/28 04:17:20;;;;;;;2.90;1.93;;;7.80;99.90;;;7.71;93.01;95916.78;5116063;27;20500;-75
2022/09/28 04:19:47;;;;;;;3.20;2.00;;;7.90;99.90;;;7.16;94.75;95878.13;5104031;27;20528;-77
2022/09/28 04:22:15;;;;;;;4.23;1.90;;;7.80;99.90;;;7.69;94.20;95939.63;5102169;27;20448;-75
2022/09/28 04:24:43;;;;;;;3.10;2.20;;;7.80;99.90;;;7.26;94.84;95851.44;5119646;27;20438;-76
2022/09/28 04:29:55;;;;;;;4.43;3.27;;;7.80;99.90;;;7.73;94.79;95919.22;5124142;27;20535;-76
2022/09/28 04:32:23;;;;;;;3.10;2.80;;;7.90;99.90;;;7.74;94.62;95915.50;5105426;27;20447;-73
2022/09/28 04:34:50;;;;;;;3.00;2.60;;;7.90;99.90;;;7.78;94.29;95921.97;5099362;27;20456;-77
2022/09/28 04:37:17;;;;;;;2.63;2.40;;;7.90;99.90;;;7.78;93.69;95909.38;5105679;27;20570;-76
2022/09/28 04:39:46;;;;;;;3.60;2.57;;;7.90;99.90;;;7.97;93.84;95914.44;5122167;27;20553;-77
2022/09/28 04:42:13;;;;;;;2.83;2.53;;;8.00;99.90;;;7.90;93.89;95914.63;5111479;27;20496;-77
2022/09/28 04:44:40;;;;;;;6.13;3.37;;;7.90;99.90;;;7.93;93.29;95906.03;5091268;28;20451;-76
2022/09/28 04:47:07;;;;;;;4.73;2.80;;;8.00;99.90;;;7.87;93.63;95915.13;5123105;27;20547;-78
2022/09/28 04:49:35;;;;;;;3.40;2.90;;;8.00;99.90;;;7.97;93.92;95919.00;5102353;27;20745;-78
2022/09/28 04:52:04;;;;;;;5.07;2.67;;;8.00;99.90;;;8.10;94.04;95912.44;5116699;27;20481;-77
2022/09/28 04:54:32;;;;;;;4.47;3.17;;;8.10;99.90;;;8.14;93.13;95919.75;5116756;27;20515;-78
2022/09/28 04:57:02;;;;;;;3.00;2.30;;;8.10;99.90;;;8.21;93.02;95914.97;5100161;27;20535;-76
2022/09/28 04:59:29;;;;;;;3.47;3.17;;;8.20;99.90;;;7.79;92.71;95840.25;5125789;27;20535;-77
2022/09/28 05:01:56;;;;;;;3.10;2.80;;;8.20;99.90;;;8.04;93.12;95909.69;5098268;27;20499;-77
2022/09/28 05:04:23;;;;;;;6.70;3.60;;;8.20;99.90;;;8.21;93.03;95914.19;5102425;27;20534;-79
2022/09/28 05:06:51;;;;;;;3.80;3.33;;;8.20;99.90;;;8.13;93.37;95912.75;5113108;27;20463;-79
2022/09/28 05:09:18;;;;;;;4.23;2.90;;;8.20;99.90;;;8.15;93.87;95899.03;5106298;27;20470;-77
2022/09/28 05:11:46;;;;;;;4.60;3.67;;;8.20;99.90;;;8.11;93.92;95909.47;5127131;27;20467;-76
2022/09/28 05:14:15;;;;;;;5.80;2.90;;;8.20;99.90;;;8.16;93.88;95890.72;5113778;27;20523;-75
2022/09/28 05:16:42;;;;;;;6.20;4.13;;;8.30;99.90;;;8.29;94.08;95894.88;5095578;27;20447;-74
2022/09/28 05:19:11;;;;;;;4.17;3.70;;;8.30;99.90;;;8.19;93.90;95879.44;5115868;27;20447;-74
2022/09/28 05:21:38;;;;;;;4.57;3.60;;;8.30;99.90;;;8.27;94.33;95888.94;5112581;28;20533;-75
2022/09/28 05:24:06;;;;;;;5.47;3.10;;;8.30;99.90;;;8.30;95.39;95890.34;5116747;27;20524;-74
2022/09/28 05:26:34;;;;;;;5.40;3.77;;;8.30;99.90;;;8.29;95.01;95869.88;5119916;28;20538;-76
2022/09/28 05:29:01;;;;;;;4.47;3.77;;;8.40;99.90;;;8.37;94.85;95872.09;5126223;28;20462;-78
2022/09/28 05:31:31;;;;;;;5.13;4.00;;;8.40;99.90;;;8.22;96.39;95876.25;5113347;28;21344;-72
2022/09/28 05:33:58;;;;;;;4.20;3.90;;;8.40;99.90;;;8.36;95.85;95884.75;5124963;28;20944;-75
2022/09/28 05:36:26;;;;;;;5.03;4.53;;;8.40;99.90;;;8.31;95.73;95868.53;5111629;28;20456;-72
2022/09/28 05:38:54;;;;;;;4.30;3.90;;;8.50;99.90;;;8.53;95.25;95877.66;5095680;28;21240;-72
2022/09/28 05:41:21;;;;;;;6.63;4.20;;;8.60;99.90;;;8.51;95.55;95880.63;5097443;28;21024;-72
2022/09/28 05:43:50;;;;;;;4.10;3.47;;;8.60;99.90;;;8.52;95.44;95887.63;5112738;28;20513;-72
2022/09/28 05:46:18;;;;;;;5.60;3.60;;;8.60;99.90;;;8.60;95.48;95889.84;5099919;28;20440;-70
2022/09/28 05:48:48;;;;;;;6.30;4.03;;;8.70;99.90;;;8.68;95.28;95898.53;5091415;28;20529;-74
2022/09/28 05:51:16;;;;;;;3.50;3.20;;;8.70;99.90;;;8.77;94.08;95891.59;5111113;28;20492;-69
2022/09/28 05:53:44;;;;;;;3.67;3.30;;;8.70;99.90;;;8.71;94.11;95890.75;5097153;28;20529;-72
2022/09/28 05:56:11;;;;;;;4.93;3.90;;;8.80;99.90;;;8.90;93.88;95896.56;5114528;28;20454;-74
2022/09/28 05:58:38;;;;;;;5.40;3.00;;;8.90;99.90;;;8.83;93.64;95887.91;5104659;28;20495;-78
2022/09/28 06:01:05;;;;;;;3.83;3.43;;;8.80;99.90;;;8.82;93.34;95878.19;5087229;28;20458;-72
2022/09/28 06:03:33;;;;;;;4.83;3.93;;;8.90;99.90;;;8.91;92.89;95889.31;5114280;28;20521;-74
2022/09/28 06:06:02;;;;;;;10.20;8.10;;;8.90;99.90;;;8.85;93.22;95879.53;5108889;28;20461;-72
2022/09/28 06:08:31;;;;;;;3.00;2.70;;;8.90;99.90;;;8.82;93.39;95880.91;5088775;28;20449;-75
2022/09/28 06:11:00;;;;;;;4.23;3.07;;;8.90;99.90;;;9.01;92.48;95877.81;5116822;27;20496;-73
2022/09/28 06:13:27;;;;;;;3.00;2.27;;;9.00;99.90;;;9.07;92.74;95880.28;5118272;27;20464;-72
2022/09/28 06:15:56;;;;;;;2.70;2.50;;;9.10;99.90;;;9.25;91.32;95889.03;5099896;27;20447;-70
2022/09/28 06:18:23;;;;;;;3.83;2.37;;;9.20;99.90;;;9.10;91.18;95878.97;5101830;27;20508;-72
2022/09/28 06:20:51;;;;;;;4.23;2.83;;;9.20;99.90;;;9.26;91.54;95893.34;5092053;28;20975;-74
2022/09/28 06:23:19;;;;;;;2.50;2.30;;;9.20;99.90;;;9.30;90.50;95883.66;5118584;27;20462;-74
2022/09/28 06:25:47;;;;;;;3.00;2.27;;;9.30;99.90;;;9.26;89.85;95885.25;5112675;27;20991;-75
2022/09/28 06:28:15;;;;;;;2.60;2.40;;;9.30;99.90;;;9.51;88.64;95891.88;5114735;27;20999;-73
2022/09/28 06:30:43;;;;;;;4.03;2.40;;;9.40;99.90;;;9.48;88.90;95898.59;5097518;27;20878;-74
2022/09/28 06:33:13;;;;;;;2.50;1.87;;;9.50;99.90;;;9.67;87.93;95900.84;5122943;27;20876;-72
2022/09/28 06:35:41;;;;;;;5.53;2.80;;;9.60;99.90;;;9.56;87.91;95916.16;5090804;27;20458;-73
2022/09/28 06:38:08;;;;;;;3.93;2.43;;;9.60;99.90;;;9.65;86.75;95905.69;5102939;27;20476;-76
2022/09/28 06:40:37;;;;;;;4.40;2.40;;;9.70;99.90;;;9.77;86.62;95921.66;5096721;27;20460;-81
2022/09/28 06:43:09;;;;;;;2.30;2.03;;;9.70;99.90;;;9.96;86.65;95918.53;5097965;27;20562;-73
2022/09/28 06:45:37;;;;;;;2.00;1.90;;;9.80;99.90;;;9.87;85.82;95916.34;5121012;27;20472;-81
2022/09/28 06:48:06;;;;;;;2.43;2.23;;;9.90;98.60;;;9.97;85.65;95915.56;5113466;27;20454;-73
2022/09/28 06:50:36;;;;;;;3.10;2.20;;;9.90;98.50;;;9.97;85.95;95920.16;5106423;27;20876;-71
2022/09/28 06:53:05;;;;;;;2.97;2.57;;;9.90;99.10;;;9.90;85.83;95921.19;5119706;27;20489;-75
2022/09/28 06:55:33;;;;;;;2.73;2.20;;;9.90;98.30;;;9.91;85.74;95919.31;5099911;28;20461;-78
2022/09/28 06:58:04;;;;;;;2.80;2.60;;;9.90;99.40;;;10.11;85.67;95926.69;5099056;27;20449;-71
2022/09/28 07:00:35;;;;;;;4.10;2.20;;;10.00;98.60;;;10.10;85.23;95925.09;5105177;27;20200;-72
2022/09/28 07:03:03;;;;;;;2.30;2.10;;;10.10;97.60;;;10.21;84.10;95920.53;5118856;27;20455;-73
2022/09/28 07:05:35;;;;;;;2.17;1.90;;;10.20;96.40;;;10.28;84.68;95931.88;5106090;27;20572;-75
2022/09/28 07:08:03;;;;;;;1.80;1.70;;;10.20;96.40;;;10.34;83.27;95935.41;5101789;27;20462;-75
2022/09/28 07:10:34;;;;;;;5.17;1.83;;;10.20;95.70;;;10.03;84.93;95946.06;5113550;27;20647;-75
2022/09/28 07:13:04;;;;;;;2.10;1.90;;;10.20;96.30;;;10.03;84.42;95948.78;5111890;27;20490;-71
2022/09/28 07:15:32;;;;;;;2.23;1.80;;;10.10;95.50;;;9.77;84.96;95949.47;5097141;27;20521;-70
2022/09/28 07:18:00;;;;;;;2.07;1.50;;;10.00;95.50;;;9.78;85.37;95955.66;5112235;27;20465;-77
2022/09/28 07:20:29;;;;;;;1.70;1.60;;;9.90;96.40;;;9.97;85.01;95957.94;5104263;27;20537;-70
2022/09/28 07:22:58;;;;;;;1.73;1.60;;;10.00;97.20;;;10.12;85.21;95963.41;5118485;27;20446;-69
2022/09/28 07:25:29;;;;;;;3.20;1.80;;;10.10;97.20;;;10.09;84.26;95950.44;5099265;27;21190;-71
2022/09/28 07:27:59;;;;;;;1.70;1.40;;;10.10;96.50;;;10.36;83.85;95965.63;5114401;27;20857;-73
2022/09/28 07:30:31;;;;;;;2.97;1.80;;;10.20;96.30;;;10.61;83.09;95969.53;5100002;27;20562;-76
2022/09/28 07:32:59;;;;;;;2.50;2.30;;;10.40;95.10;;;10.70;81.96;95964.44;5118439;27;20711;-74
2022/09/28 07:35:27;;;;;;;2.93;1.90;;;10.60;94.00;;;10.76;80.76;95972.28;5113732;27;20964;-72
2022/09/28 07:37:59;;;;;;;2.07;1.93;;;10.70;92.80;;;10.72;82.24;95979.31;5109353;27;20476;-74
2022/09/28 07:43:19;;;;;;;2.30;1.73;;;10.70;93.50;;;10.63;81.74;95970.91;5099330;27;20474;-71
2022/09/28 07:45:49;;;;;;;2.07;1.87;;;10.60;93.10;;;9.96;82.39;95923.94;5091658;27;20480;-72
2022/09/28 07:48:17;;;;;;;2.03;1.63;;;10.50;92.90;;;10.10;83.91;95997.94;5117363;27;20470;-77
2022/09/28 07:50:50;;;;;;;1.93;1.67;;;10.40;94.00;;;9.87;84.02;95996.44;5094179;27;20478;-73
2022/09/28 07:53:19;;;;;;;1.43;1.30;;;10.10;94.50;;;9.53;81.24;95992.19;5114022;27;20460;-71
2022/09/28 07:55:51;;;;;;;1.20;1.10;;;9.90;91.90;;;9.25;80.69;96006.75;5114124;27;20542;-73
2022/09/28 07:58:19;;;;;;;1.30;1.20;;;9.70;91.20;;;9.24;83.04;96015.91;5097392;28;20551;-74
2022/09/28 08:00:49;;;;;;;2.77;1.20;;;9.60;93.10;;;9.17;83.98;96006.16;5117590;27;20789;-70
2022/09/28 08:03:18;;;;;;;4.23;1.80;;;9.50;94.20;;;9.07;84.25;96014.97;5099283;28;20445;-74
2022/09/28 08:05:45;;;;;;;1.07;1.00;;;9.40;94.60;;;8.87;84.75;96020.97;5096787;27;20665;-73
2022/09/28 08:08:13;;;;;;;5.50;0.90;;;9.30;94.80;;;8.84;85.18;96029.56;5116868;27;20454;-72
2022/09/28 08:10:43;;;;;;;1.77;1.47;;;9.10;95.60;;;8.94;85.63;96028.84;5112680;27;20473;-81
2022/09/28 08:13:10;;;;;;;1.33;1.10;;;9.10;97.10;;;9.05;86.62;96030.56;5098590;27;20583;-74
2022/09/28 08:15:37;;;;;;;1.50;1.40;;;9.20;98.30;;;9.09;86.00;96032.75;5114016;27;20453;-79
2022/09/28 08:18:06;;;;;;;1.83;1.20;;;9.30;96.90;;;9.06;85.42;96034.91;5098221;27;20206;-71
2022/09/28 08:23:20;;;;;;;2.17;1.50;;;9.40;97.00;;;9.30;84.52;96045.34;5114614;27;20519;-74
2022/09/28 08:25:48;;;;;;;1.90;1.63;;;9.50;95.80;;;9.27;84.06;96037.78;5113076;27;20463;-74
2022/09/28 08:28:17;;;;;;;1.20;1.00;;;9.50;95.10;;;9.13;83.13;96041.94;5102380;27;20465;-75
2022/09/28 08:30:45;;;;;;;1.53;1.43;;;9.50;93.10;;;9.34;82.56;96054.56;5109260;27;20463;-73
2022/09/28 08:33:15;;;;;;;1.80;1.20;;;9.60;93.40;;;9.49;81.92;96056.56;5110047;27;20528;-76
2022/09/28 08:35:42;;;;;;;2.33;1.50;;;9.60;93.00;;;9.67;80.88;96059.94;5089954;27;20449;-75
2022/09/28 08:38:10;;;;;;;1.90;1.40;;;9.80;92.00;;;9.64;80.72;96058.59;5102554;27;20463;-74
2022/09/28 08:41:03;;;;;;;1.80;1.70;;;9.80;91.80;;;10.17;79.73;96059.75;5111414;27;20480;-79
2022/09/28 08:44:22;;;;;;;1.80;1.30;;;10.10;91.60;;;10.33;77.21;96060.66;5097865;27;20473;-72
2022/09/28 08:46:55;;;;;;;1.60;1.50;;;10.40;89.40;;;10.26;76.54;96063.56;5090955;27;20484;-70
2022/09/28 08:49:28;;;;;;;1.60;1.50;;;10.50;86.90;;;10.19;76.78;96073.81;5113188;27;20598;-72
2022/09/28 08:52:00;;;;;;;1.13;1.03;;;10.40;87.00;;;10.27;76.56;96076.00;5115267;27;20911;-72
2022/09/28 08:54:38;;;;;;;1.10;0.90;;;10.40;86.70;;;10.55;76.56;96076.72;5102980;27;20456;-74
2022/09/28 08:57:12;;;;;;;1.63;1.27;;;10.60;86.80;;;10.66;76.55;96079.47;5114062;27;20508;-79
2022/09/28 08:59:48;;;;;;;1.30;1.20;;;10.70;86.60;;;11.14;74.67;96077.47;5110137;27;20466;-74
2022/09/28 09:02:22;;;;;;;1.27;1.10;;;11.10;87.30;;;11.68;71.08;96085.38;5113391;27;20453;-73
2022/09/28 09:04:51;;;;;;;1.60;1.50;;;11.60;84.80;;;11.82;71.47;96075.66;5113186;27;20456;-76
2022/09/28 09:07:56;;;;;;;1.30;1.20;;;11.80;83.30;;;11.69;71.08;96082.44;5113457;27;20463;-76
2022/09/28 09:10:48;;;;;;;1.53;1.10;;;11.80;82.80;;;11.65;69.26;96089.44;5100431;28;20495;-73
2022/09/28 09:13:45;;;;;;;1.17;0.80;;;11.80;81.40;;;11.57;69.12;96090.00;5099704;28;21110;-73
2022/09/28 09:16:25;;;;;;;1.90;1.10;;;11.70;81.50;;;11.28;69.23;96080.47;5110426;27;20447;-77
2022/09/28 09:18:58;;;;;;;1.57;1.10;;;11.60;80.90;;;11.39;70.96;96099.41;5120758;27;20536;-73
2022/09/28 09:21:40;;;;;;;1.10;1.03;;;11.40;81.80;;;11.45;69.44;96098.38;5119478;28;20970;-76
2022/09/28 09:24:25;;;;;;;2.23;1.73;;;11.50;82.00;;;11.18;70.94;96107.50;5096627;28;20456;-80
2022/09/28 09:27:05;;;;;;;1.90;1.70;;;11.30;81.50;;;10.97;69.59;96109.31;5114013;28;20460;-75
2022/09/28 09:29:54;;;;;;;1.43;1.23;;;11.10;80.90;;;10.96;70.60;96113.09;5089275;28;21356;-77
2022/09/28 09:32:48;;;;;;;1.23;1.13;;;11.00;81.70;;;11.20;71.36;96108.03;5106321;28;20506;-74
2022/09/28 09:36:12;;;;;;;1.70;1.33;;;11.10;82.20;;;11.15;71.61;96106.13;5096996;28;20446;-77
2022/09/28 09:38:58;;;;;;;1.63;1.53;;;11.20;82.00;;;11.19;71.85;96117.22;5090773;28;20607;-74
2022/09/28 09:41:43;;;;;;;2.23;1.20;;;11.20;82.80;;;10.96;70.95;96113.88;5094199;28;20924;-76
2022/09/28 09:44:48;;;;;;;1.75;1.63;;;11.10;82.30;;;10.84;70.94;96122.22;5111705;28;20504;-75
2022/09/28 09:47:21;;;;;;;1.70;1.60;;;11.00;81.70;;;10.82;70.60;96124.38;5098084;27;20192;-76
2022/09/28 09:49:55;;;;;;;1.90;1.50;;;11.00;81.30;;;10.93;70.31;96119.81;5105248;27;20584;-75
2022/09/28 09:52:29;;;;;;;1.77;1.40;;;11.00;81.30;;;11.08;67.91;96124.50;5115279;27;20580;-74
2022/09/28 09:55:03;;;;;;;1.00;1.00;;;11.10;80.20;;;11.15;68.14;96124.25;5116126;27;21299;-76
2022/09/28 09:57:34;;;;;;;1.07;0.97;;;11.10;80.00;;;11.28;67.07;96123.72;5097344;27;20464;-74
2022/09/28 10:00:04;;;;;;;2.03;1.07;;;11.20;79.70;;;11.46;66.02;96117.00;5115603;27;20543;-74
2022/09/28 10:02:34;;;;;;;0.90;0.90;;;11.40;78.90;;;11.75;66.25;96121.91;5116652;27;20461;-76
2022/09/28 10:05:07;;;;;;;2.17;1.40;;;11.50;79.30;;;12.04;66.30;96129.53;5098964;27;20465;-77
2022/09/28 10:07:42;;;;;;;1.50;1.00;;;11.90;79.60;;;12.17;63.95;96133.56;5102869;27;20496;-73
2022/09/28 10:10:20;;;;;;;1.20;1.10;;;12.10;78.00;;;12.52;63.45;96119.47;5114701;27;20457;-75
2022/09/28 10:12:49;;;;;;;1.57;1.10;;;12.40;78.10;;;12.71;61.85;96123.19;5119498;27;20946;-76
2022/09/28 10:15:23;;;;;;;1.80;1.30;;;12.60;76.40;;;13.46;61.45;96126.16;5095994;27;20456;-73
2022/09/28 10:17:51;;;;;;;5.00;1.00;;;13.10;77.20;;;13.85;59.07;96130.78;5116194;27;20459;-72
2022/09/28 10:20:19;;;;;;;1.37;0.80;;;13.60;75.40;;;13.23;56.44;96109.44;5095741;27;20592;-75
2022/09/28 10:22:47;;;;;;;1.13;1.03;;;13.50;70.70;;;12.62;57.67;96130.25;5102975;27;20977;-77
2022/09/28 10:25:16;;;;;;;0.70;0.70;;;12.90;70.30;;;12.02;59.99;96139.00;5099238;27;20484;-74
2022/09/28 10:27:45;;;;;;;2.83;0.90;;;12.30;71.80;;;11.90;61.99;96144.66;5112874;27;20458;-81
2022/09/28 10:30:18;;;;;;;1.37;1.20;;;11.90;73.80;;;12.26;63.47;96150.09;5117815;27;20460;-77
2022/09/28 10:32:47;;;;;;;1.83;1.30;;;12.00;75.80;;;12.60;62.18;96148.69;5116470;27;20479;-74
2022/09/28 10:35:24;;;;;;;1.80;1.50;;;12.40;75.60;;;12.48;60.52;96138.16;5115635;27;20471;-80
2022/09/28 10:37:56;;;;;;;2.20;1.20;;;12.50;74.00;;;12.45;60.51;96142.22;5098090;27;20493;-76
2022/09/28 10:40:40;;;;;;;1.57;1.40;;;12.50;73.60;;;12.61;60.86;96136.75;5119187;27;20492;-77
2022/09/28 10:43:20;;;;;;;2.90;1.07;;;12.50;73.90;;;12.64;59.72;96148.97;5111703;27;20798;-76
2022/09/28 10:45:48;;;;;;;1.43;0.80;;;12.60;72.90;;;12.38;60.84;96149.81;5120324;27;20543;-76
2022/09/28 10:48:20;;;;;;;1.97;1.00;;;12.50;73.60;;;12.08;59.86;96145.22;5129866;27;20461;-78
2022/09/28 10:51:00;;;;;;;1.10;0.80;;;12.10;72.10;;;11.43;59.86;96143.75;5130661;27;20656;-82
2022/09/28 10:53:28;;;;;;;1.70;0.70;;;11.70;71.30;;;11.47;61.23;96153.78;5106926;27;20453;-75
2022/09/28 10:56:01;;;;;;;1.00;0.70;;;11.50;72.80;;;11.54;61.07;96150.81;5111165;27;20461;-75
2022/09/28 10:58:38;;;;;;;1.07;0.97;;;11.60;73.00;;;11.56;61.89;96150.56;5117437;27;20493;-79